x

New York Harbor Entrance - 15 Nm Se Of Breezy Point , Ny (44065) Wave Buoy

5:50pm - Sun 26th Feb 2017 All times are EST. -5 hours from GMT.

  • Sig Wave height 3.3ft
  • Swell Direction
  • Peak Period 10s
  • Average Period 4s
  • Wind
    22mph, 29mph gusts
  • Sea Temp 43°f
  • Air Temp 40°f
  • Sea Pressure 1019.7mb
  • New York Harbor Entrance - 15 Nm Se Of Breezy Point , Ny
  • New York Harbor Entrance - 15 Nm Se Of Breezy Point , Ny

More Historic Weather Station data

Upgrade to MSW Pro to gain access to the past 30 days of data for over 8000 Wavebouys and Weather Stations around the globe.

Join Pro

Comparision Forecast

View Surf forecast
   
Sun 02/26 5:50pm 3.5ft 10s 4s 22 29 mph 1019.7mb 43f 40f
4:50pm 3ft 4s 4s 22 25 mph 1018.6mb 43f 40f
3:50pm 3ft 10s 4s 20 27 mph 1017.8mb 43f 40f
2:50pm 3ft 10s 4s 20 22 mph 1017.1mb 43f 40f
1:50pm 3.5ft 10s 4s 22 27 mph 1016.6mb 43f 39f
12:50pm 3.5ft 11s 4s 22 27 mph 1016.4mb 43f 38f
11:50am 3.5ft 11s 4s 22 29 mph 1016.2mb 43f 38f
10:50am 4ft 11s 4s 25 27 mph 1015.5mb 43f 38f
9:50am 4.5ft 11s 4s 22 31 mph 1014.7mb 43f 38f
8:50am 4.5ft 5s 4s 25 31 mph 1013.7mb 43f 38f
7:50am 4.5ft 11s  -  25 31 mph 1012.7mb 43f 38f
6:50am 5ft 11s 5s 27 31 mph 1011.2mb 43f 39f
5:50am 4.5ft 11s 5s 25 29 mph 1010.1mb 44f 40f
4:50am 4.5ft 9s 5s 22 29 mph 1008.7mb 44f 41f
3:50am 4.5ft 11s 5s 25 29 mph 1007.3mb 44f 43f
2:50am 4.5ft 10s 5s 25 31 mph 1006.7mb 44f 43f
1:50am 5ft 9s 5s 22 29 mph 1005.9mb 44f 43f
12:50am 4.5ft 11s 5s 22 29 mph 1004.9mb 44f 45f
Sat 02/25 11:50pm 4.5ft 11s 6s 22 31 mph 1003.9mb 44f 47f
10:50pm 4.5ft 11s 6s 9 11 mph 1002.6mb 44f 47f
9:50pm 5.5ft 11s 6s 11 13 mph 1002.1mb 45f 47f
8:50pm 5.5ft 11s 5s 18 20 mph 1001.4mb 44f 48f
7:50pm 5ft 11s 6s 27 38 mph 1000.2mb 44f 49f
6:50pm 5ft 11s 7s 16 18 mph 998.8mb 44f 48f
5:50pm 4.5ft 9s 6s 13 16 mph 998.5mb 44f 47f
4:50pm 5ft 11s 7s 11 13 mph 998.9mb 44f 47f
3:50pm 4.5ft 11s 6s 13 16 mph 999mb 44f 48f
2:50pm 4.5ft 10s 6s 13
mph
1001.1mb 44f 49f
1:50pm 4.5ft 9s 6s 16
mph
1002.2mb 45f 49f
12:50pm 4.5ft 10s 6s 16 18 mph 1003.8mb 45f 49f
11:50am 4.5ft 10s 6s 13 16 mph 1005.4mb 45f 48f
10:50am 4.5ft 8s 6s 13 16 mph 1006.1mb 44f 47f
9:50am 4ft 8s 6s 13 16 mph 1006.8mb 44f 47f
8:50am 3.5ft 8s 6s 13
mph
1007.3mb 44f 47f
7:50am 3.5ft 11s 6s 13 16 mph 1008mb 44f 46f
6:50am 3.5ft 11s 6s 11 13 mph 1008.2mb 44f 46f
5:50am 3.5ft 11s 6s 11 13 mph 1008.6mb 44f 46f
4:50am 3.5ft 10s 6s 9 11 mph 1008.8mb 44f 45f
3:50am 3ft 11s 6s 9
mph
1009.5mb 44f 46f
2:50am 3ft 9s 6s 9
mph
1009.9mb 44f 46f
1:50am 2.5ft 9s 6s 11
mph
1010.4mb 44f 47f
12:50am 2.5ft 12s 6s 7
mph
1010.9mb 44f 46f
Fri 02/24 11:50pm 3ft 11s 6s 4
mph
1011.4mb 44f 46f
10:50pm 2.5ft 11s 6s 7
mph
1011.5mb 44f 45f
9:50pm 2.5ft 11s 6s 9 11 mph 1011.2mb 44f 46f
8:50pm 3ft 11s 6s 11 13 mph 1011.4mb 44f 47f
7:50pm 3ft 10s 5s 16 18 mph 1011.4mb 44f 48f
6:50pm 3ft 12s 5s 16 18 mph 1011.8mb 44f 48f
5:50pm 3.5ft 13s 4s 13 16 mph 1011.8mb 44f 48f
4:50pm 3.5ft 11s 5s 18 22 mph 1011.6mb 45f 49f
3:50pm 3.5ft 11s 5s 18 20 mph 1011.6mb 45f 50f
2:50pm 3.5ft 12s 5s 16 18 mph 1011.7mb 45f 49f
1:50pm 3.5ft 11s 5s 16 18 mph 1012.1mb 45f 49f
12:50pm 3.5ft 12s 6s 13 16 mph 1013.1mb 44f 49f
11:50am 3.5ft 12s 6s 13 16 mph 1013.9mb 44f 48f
10:50am 3.5ft 12s 7s 13 16 mph 1014.5mb 43f 47f
9:50am 3.5ft 12s 6s 13
mph
1014.7mb 43f 46f
8:50am 3.5ft 11s 7s 11 13 mph 1014.3mb 43f 46f
7:50am 3.5ft 12s 6s 9 11 mph 1014.1mb 43f 46f
6:50am 3.5ft 12s 6s 11 13 mph 1013.7mb 43f 46f
5:50am 3.5ft 11s 6s 13 16 mph 1013.7mb 43f 47f
4:50am 4ft 12s 6s 13
mph
1013.3mb 44f 47f
3:50am 3.5ft 11s 5s 11 13 mph 1013.1mb 44f 47f
2:50am 4ft 12s 6s 13 16 mph 1013mb 44f 47f
1:50am 4ft 11s 5s 13
mph
1013.4mb 43f 47f
12:50am 3.5ft 12s 6s 13 16 mph 1012.7mb 44f 47f
Thu 02/23 11:50pm 3.5ft 12s 5s 13 16 mph 1012.6mb 44f 47f
10:50pm 4ft 11s 6s 16 18 mph 1012.4mb 44f 47f
9:50pm 4ft 11s 6s 11 13 mph 1012.4mb 44f 47f
8:50pm 4.5ft 11s 5s 13 18 mph 1012.1mb 44f 47f
7:50pm 4.5ft 11s 5s 16 18 mph 1011.4mb 42f 47f
6:50pm 4.5ft 11s 4s 18 22 mph 1011mb 43f 48f
5:50pm 3.5ft 11s 5s 22 27 mph 1009.5mb 43f 48f
4:50pm 3.5ft 11s 7s 18 20 mph 1009.7mb 44f 49f
3:50pm 3ft 11s 7s 13
mph
1009.6mb 44f 48f
2:50pm 3ft 10s 8s 7
mph
1010.1mb 44f 47f
1:50pm 2.5ft 11s 7s 4 7 mph 1010.6mb 44f 46f
12:50pm 3ft 11s 7s 4
mph
1011.1mb 43f 45f
11:50am 2.5ft 10s 7s 9 11 mph 1011.6mb 43f 44f
10:50am 2.5ft 11s 7s 7
mph
1012.5mb 43f 43f
9:50am 3ft 11s 7s 7 9 mph 1013mb 42f 43f
8:50am 3ft 11s 7s 7 9 mph 1012.9mb 42f 43f
7:50am 2.5ft 11s 7s 9
mph
1012.6mb 42f 42f
6:50am 2.5ft 11s 7s 7
mph
1012mb 42f 42f
5:50am 2.5ft 11s 7s 11 13 mph 1011.8mb 42f 43f
4:50am 2.5ft 10s 7s 9 11 mph 1011.8mb 42f 44f
3:50am 2.5ft 10s 6s 7
mph
1011.8mb 42f 44f
2:50am 2.5ft 8s 6s 7
mph
1011.8mb 42f 44f
1:50am 2.5ft 11s 6s 7 9 mph 1011.8mb 42f 44f
12:50am 2ft 9s 6s 7
mph
1012mb 42f 44f